createdAt,value
2023-03-20T00:00:48.328Z,1015.21
2023-03-20T00:01:48.331Z,1015.21
2023-03-20T00:02:48.321Z,1015.22
2023-03-20T00:03:48.375Z,1015.25
2023-03-20T00:04:48.381Z,1015.24
2023-03-20T00:05:48.332Z,1015.25
2023-03-20T00:06:48.332Z,1015.25
2023-03-20T00:07:48.323Z,1015.23
2023-03-20T00:08:48.320Z,1015.21
2023-03-20T00:09:48.323Z,1015.25
2023-03-20T00:10:48.294Z,1015.23
2023-03-20T00:11:48.343Z,1015.28
2023-03-20T00:12:48.309Z,1015.23
2023-03-20T00:13:48.305Z,1015.25
2023-03-20T00:14:48.303Z,1015.24
2023-03-20T00:15:48.317Z,1015.26
2023-03-20T00:16:48.309Z,1015.23
2023-03-20T00:17:48.281Z,1015.24
2023-03-20T00:18:48.294Z,1015.23
2023-03-20T00:19:48.301Z,1015.26
2023-03-20T00:20:48.300Z,1015.29
2023-03-20T00:21:48.269Z,1015.26
2023-03-20T00:22:48.273Z,1015.28
2023-03-20T00:23:48.264Z,1015.28
2023-03-20T00:24:48.268Z,1015.29
2023-03-20T00:25:48.279Z,1015.32
2023-03-20T00:26:48.254Z,1015.31
2023-03-20T00:27:48.267Z,1015.33
2023-03-20T00:28:48.244Z,1015.38
2023-03-20T00:29:48.255Z,1015.37
2023-03-20T00:30:48.245Z,1015.38
2023-03-20T00:31:48.343Z,1015.41
2023-03-20T00:32:48.263Z,1015.41
2023-03-20T00:33:48.243Z,1015.39
2023-03-20T00:34:48.234Z,1015.42
2023-03-20T00:35:48.245Z,1015.42
2023-03-20T00:36:48.239Z,1015.46
2023-03-20T00:37:48.234Z,1015.46
2023-03-20T00:38:48.221Z,1015.45
2023-03-20T00:39:48.225Z,1015.49
2023-03-20T00:40:48.221Z,1015.50
2023-03-20T00:41:48.215Z,1015.52
2023-03-20T00:42:48.214Z,1015.53
2023-03-20T00:43:48.218Z,1015.53
2023-03-20T00:44:48.196Z,1015.54
2023-03-20T00:45:48.207Z,1015.53
2023-03-20T00:46:48.279Z,1015.56
2023-03-20T00:47:48.220Z,1015.53
2023-03-20T00:48:48.187Z,1015.55
2023-03-20T00:49:48.184Z,1015.58
2023-03-20T00:50:48.200Z,1015.54
2023-03-20T00:51:48.182Z,1015.57
2023-03-20T00:52:48.340Z,1015.55
2023-03-20T00:53:48.179Z,1015.56
2023-03-20T00:54:48.176Z,1015.53
2023-03-20T00:55:48.192Z,1015.59
2023-03-20T00:56:48.161Z,1015.53
2023-03-20T00:57:48.168Z,1015.55
2023-03-20T00:58:48.151Z,1015.52
2023-03-20T00:59:48.167Z,1015.53
2023-03-20T01:00:48.166Z,1015.56
2023-03-20T01:01:48.173Z,1015.54
2023-03-20T01:02:48.128Z,1015.58
2023-03-20T01:03:48.128Z,1015.57
2023-03-20T01:04:48.122Z,1015.57
2023-03-20T01:05:48.129Z,1015.62
2023-03-20T01:06:48.133Z,1015.64
2023-03-20T01:07:48.128Z,1015.62
2023-03-20T01:08:48.139Z,1015.58
2023-03-20T01:09:48.120Z,1015.61
2023-03-20T01:10:48.136Z,1015.59
2023-03-20T01:11:48.120Z,1015.56
2023-03-20T01:12:48.105Z,1015.60
2023-03-20T01:13:48.097Z,1015.54
2023-03-20T01:14:48.110Z,1015.53
2023-03-20T01:15:48.095Z,1015.53
2023-03-20T01:16:48.160Z,1015.54
2023-03-20T01:17:48.086Z,1015.56
2023-03-20T01:18:48.084Z,1015.49
2023-03-20T01:19:48.104Z,1015.54
2023-03-20T01:20:48.089Z,1015.53
2023-03-20T01:21:48.077Z,1015.51
2023-03-20T01:22:48.063Z,1015.52
2023-03-20T01:23:48.059Z,1015.54
2023-03-20T01:24:48.088Z,1015.50
2023-03-20T01:25:48.065Z,1015.53
2023-03-20T01:26:48.055Z,1015.47
2023-03-20T01:27:48.066Z,1015.49
2023-03-20T01:28:48.060Z,1015.47
2023-03-20T01:29:48.062Z,1015.47
2023-03-20T01:30:48.057Z,1015.53
2023-03-20T01:31:48.158Z,1015.53
2023-03-20T01:32:48.095Z,1015.54
2023-03-20T01:33:48.053Z,1015.52
2023-03-20T01:34:48.039Z,1015.55
2023-03-20T01:35:48.093Z,1015.52
2023-03-20T01:36:48.029Z,1015.49
2023-03-20T01:37:48.031Z,1015.46
2023-03-20T01:38:48.030Z,1015.47
2023-03-20T01:39:48.029Z,1015.48
2023-03-20T01:40:48.054Z,1015.46
2023-03-20T01:41:48.052Z,1015.45
2023-03-20T01:42:48.014Z,1015.44
2023-03-20T01:43:48.007Z,1015.45
2023-03-20T01:44:48.001Z,1015.46
2023-03-20T01:45:48.039Z,1015.44
2023-03-20T01:46:47.985Z,1015.41
2023-03-20T01:47:48.002Z,1015.42
2023-03-20T01:48:47.990Z,1015.41
2023-03-20T01:49:47.987Z,1015.36
2023-03-20T01:50:47.984Z,1015.35
2023-03-20T01:51:47.973Z,1015.34
2023-03-20T01:52:47.973Z,1015.34
2023-03-20T01:53:47.969Z,1015.31
2023-03-20T01:54:47.967Z,1015.32
2023-03-20T01:55:47.978Z,1015.33
2023-03-20T01:56:47.975Z,1015.34
2023-03-20T01:57:47.978Z,1015.31
2023-03-20T01:58:47.967Z,1015.28
2023-03-20T01:59:47.953Z,1015.32
2023-03-20T02:00:47.982Z,1015.32
2023-03-20T02:01:47.956Z,1015.31
2023-03-20T02:02:47.950Z,1015.30
2023-03-20T02:03:47.944Z,1015.36
2023-03-20T02:04:48.038Z,1015.40
2023-03-20T02:05:47.924Z,1015.37
2023-03-20T02:06:47.936Z,1015.35
2023-03-20T02:07:47.935Z,1015.41
2023-03-20T02:08:47.939Z,1015.38
2023-03-20T02:09:47.942Z,1015.36
2023-03-20T02:10:47.925Z,1015.38
2023-03-20T02:11:47.917Z,1015.37
2023-03-20T02:12:47.921Z,1015.39
2023-03-20T02:13:47.908Z,1015.36
2023-03-20T02:14:47.906Z,1015.34
2023-03-20T02:15:47.910Z,1015.37
2023-03-20T02:16:48.010Z,1015.36
2023-03-20T02:17:47.893Z,1015.40
2023-03-20T02:18:47.910Z,1015.47
2023-03-20T02:19:47.881Z,1015.48
2023-03-20T02:20:47.882Z,1015.52
2023-03-20T02:21:47.863Z,1015.55
2023-03-20T02:22:47.881Z,1015.53
2023-03-20T02:23:47.884Z,1015.50
2023-03-20T02:24:47.860Z,1015.46
2023-03-20T02:25:47.853Z,1015.46
2023-03-20T02:26:47.854Z,1015.46
2023-03-20T02:27:47.863Z,1015.46
2023-03-20T02:28:47.877Z,1015.49
2023-03-20T02:29:47.840Z,1015.51
2023-03-20T02:30:47.883Z,1015.54
2023-03-20T02:31:47.854Z,1015.55
2023-03-20T02:32:47.879Z,1015.54
2023-03-20T02:33:47.825Z,1015.54
2023-03-20T02:34:47.839Z,1015.55
2023-03-20T02:35:47.861Z,1015.48
2023-03-20T02:36:47.837Z,1015.48
2023-03-20T02:37:47.815Z,1015.40
2023-03-20T02:38:47.811Z,1015.35
2023-03-20T02:39:47.809Z,1015.30
2023-03-20T02:40:47.815Z,1015.31
2023-03-20T02:41:47.854Z,1015.31
2023-03-20T02:42:47.810Z,1015.29
2023-03-20T02:43:47.804Z,1015.34
2023-03-20T02:44:47.810Z,1015.34
2023-03-20T02:45:47.924Z,1015.32
2023-03-20T02:46:47.803Z,1015.37
2023-03-20T02:47:47.802Z,1015.36
2023-03-20T02:48:47.792Z,1015.38
2023-03-20T02:49:47.784Z,1015.38
2023-03-20T02:50:47.774Z,1015.40
2023-03-20T02:51:47.770Z,1015.36
2023-03-20T02:52:47.788Z,1015.28
2023-03-20T02:53:47.777Z,1015.26
2023-03-20T02:54:47.776Z,1015.20
2023-03-20T02:55:47.770Z,1015.16
2023-03-20T02:56:47.760Z,1015.16
2023-03-20T02:57:47.766Z,1015.18
2023-03-20T02:58:47.761Z,1015.14
2023-03-20T02:59:47.749Z,1015.17
2023-03-20T03:00:47.777Z,1015.24
2023-03-20T03:01:47.814Z,1015.24
2023-03-20T03:02:47.828Z,1015.26
2023-03-20T03:03:47.738Z,1015.32
2023-03-20T03:04:47.740Z,1015.35
2023-03-20T03:05:47.733Z,1015.35
2023-03-20T03:06:47.757Z,1015.44
2023-03-20T03:07:47.728Z,1015.43
2023-03-20T03:08:47.727Z,1015.47
2023-03-20T03:09:47.707Z,1015.48
2023-03-20T03:10:47.720Z,1015.45
2023-03-20T03:11:47.712Z,1015.49
2023-03-20T03:12:47.701Z,1015.49
2023-03-20T03:13:47.704Z,1015.48
2023-03-20T03:14:47.709Z,1015.51
2023-03-20T03:15:47.734Z,1015.57
2023-03-20T03:16:47.726Z,1015.58
2023-03-20T03:17:47.686Z,1015.57
2023-03-20T03:18:47.705Z,1015.57
2023-03-20T03:19:47.677Z,1015.54
2023-03-20T03:20:47.687Z,1015.55
2023-03-20T03:21:47.665Z,1015.52
2023-03-20T03:22:47.665Z,1015.54
2023-03-20T03:23:47.684Z,1015.48
2023-03-20T03:24:47.678Z,1015.49
2023-03-20T03:25:47.753Z,1015.49
2023-03-20T03:26:47.667Z,1015.45
2023-03-20T03:27:47.649Z,1015.48
2023-03-20T03:28:47.666Z,1015.50
2023-03-20T03:29:47.661Z,1015.51
2023-03-20T03:30:47.680Z,1015.47
2023-03-20T03:31:47.628Z,1015.45
2023-03-20T03:32:47.735Z,1015.52
2023-03-20T03:33:47.629Z,1015.52
2023-03-20T03:34:47.635Z,1015.52
2023-03-20T03:35:47.628Z,1015.53
2023-03-20T03:36:47.638Z,1015.44
2023-03-20T03:37:47.607Z,1015.37
2023-03-20T03:38:47.620Z,1015.31
2023-03-20T03:39:47.630Z,1015.17
2023-03-20T03:40:47.604Z,1015.12
2023-03-20T03:41:47.601Z,1015.10
2023-03-20T03:42:47.607Z,1015.10
2023-03-20T03:43:47.601Z,1015.14
2023-03-20T03:44:47.598Z,1015.17
2023-03-20T03:45:47.598Z,1015.17
2023-03-20T03:46:47.664Z,1015.18
2023-03-20T03:47:47.595Z,1015.19
2023-03-20T03:48:47.593Z,1015.22
2023-03-20T03:49:47.579Z,1015.21
2023-03-20T03:50:47.582Z,1015.25
2023-03-20T03:51:47.582Z,1015.25
2023-03-20T03:52:47.583Z,1015.31
2023-03-20T03:53:47.557Z,1015.36
2023-03-20T03:54:47.567Z,1015.37
2023-03-20T03:55:47.592Z,1015.43
2023-03-20T03:56:47.581Z,1015.45
2023-03-20T03:57:47.537Z,1015.41
2023-03-20T03:58:47.540Z,1015.36
2023-03-20T03:59:47.549Z,1015.34
2023-03-20T04:00:47.534Z,1015.38
2023-03-20T04:01:47.604Z,1015.38
2023-03-20T04:02:47.550Z,1015.41
2023-03-20T04:03:47.559Z,1015.44
2023-03-20T04:04:47.609Z,1015.48
2023-03-20T04:05:47.527Z,1015.52
2023-03-20T04:06:47.520Z,1015.54
2023-03-20T04:07:47.525Z,1015.56
2023-03-20T04:08:47.541Z,1015.58
2023-03-20T04:09:47.515Z,1015.58
2023-03-20T04:10:47.512Z,1015.60
2023-03-20T04:11:47.526Z,1015.63
2023-03-20T04:12:47.512Z,1015.59
2023-03-20T04:13:47.565Z,1015.55
2023-03-20T04:14:47.508Z,1015.54
2023-03-20T04:15:47.510Z,1015.54
2023-03-20T04:16:47.493Z,1015.55
2023-03-20T04:17:47.472Z,1015.54
2023-03-20T04:18:47.537Z,1015.53
2023-03-20T04:19:47.483Z,1015.53
2023-03-20T04:20:47.524Z,1015.54
2023-03-20T04:21:47.473Z,1015.52
2023-03-20T04:22:47.484Z,1015.58
2023-03-20T04:23:47.479Z,1015.55
2023-03-20T04:24:47.462Z,1015.59
2023-03-20T04:25:47.513Z,1015.63
2023-03-20T04:26:47.466Z,1015.59
2023-03-20T04:27:47.450Z,1015.58
2023-03-20T04:28:47.438Z,1015.59
2023-03-20T04:29:47.447Z,1015.54
2023-03-20T04:30:47.442Z,1015.53
2023-03-20T04:31:47.527Z,1015.58
2023-03-20T04:32:47.505Z,1015.56
2023-03-20T04:33:47.436Z,1015.59
2023-03-20T04:34:47.450Z,1015.55
2023-03-20T04:35:47.462Z,1015.55
2023-03-20T04:36:47.445Z,1015.58
2023-03-20T04:37:47.426Z,1015.58
2023-03-20T04:38:47.417Z,1015.61
2023-03-20T04:39:47.414Z,1015.59
2023-03-20T04:40:47.412Z,1015.55
2023-03-20T04:41:47.416Z,1015.54
2023-03-20T04:42:47.399Z,1015.51
2023-03-20T04:43:47.394Z,1015.49
2023-03-20T04:44:47.388Z,1015.45
2023-03-20T04:45:47.422Z,1015.40
2023-03-20T04:46:47.381Z,1015.36
2023-03-20T04:47:47.375Z,1015.33
2023-03-20T04:48:47.389Z,1015.34
2023-03-20T04:49:47.367Z,1015.30
2023-03-20T04:50:47.393Z,1015.29
2023-03-20T04:51:47.370Z,1015.29
2023-03-20T04:52:47.406Z,1015.31
2023-03-20T04:53:47.367Z,1015.33
2023-03-20T04:54:47.368Z,1015.30
2023-03-20T04:55:47.360Z,1015.30
2023-03-20T04:56:47.367Z,1015.28
2023-03-20T04:57:47.359Z,1015.28
2023-03-20T04:58:47.350Z,1015.25
2023-03-20T04:59:47.343Z,1015.30
2023-03-20T05:00:47.399Z,1015.31
2023-03-20T05:01:47.337Z,1015.33
2023-03-20T05:02:47.337Z,1015.33
2023-03-20T05:03:47.356Z,1015.33
2023-03-20T05:04:47.374Z,1015.37
2023-03-20T05:05:47.323Z,1015.35
2023-03-20T05:06:47.325Z,1015.35
2023-03-20T05:07:47.316Z,1015.34
2023-03-20T05:08:47.324Z,1015.37
2023-03-20T05:09:47.309Z,1015.38
2023-03-20T05:10:47.304Z,1015.31
2023-03-20T05:11:47.307Z,1015.33
2023-03-20T05:12:47.325Z,1015.31
2023-03-20T05:13:47.282Z,1015.31
2023-03-20T05:14:47.291Z,1015.28
2023-03-20T05:15:47.293Z,1015.24
2023-03-20T05:16:47.323Z,1015.21
2023-03-20T05:17:47.281Z,1015.16
2023-03-20T05:18:47.276Z,1015.18
2023-03-20T05:19:47.260Z,1015.10
2023-03-20T05:20:47.275Z,1015.17
2023-03-20T05:21:47.250Z,1015.18
2023-03-20T05:22:47.249Z,1015.15
2023-03-20T05:23:47.242Z,1015.19
2023-03-20T05:24:47.276Z,1015.16
2023-03-20T05:25:47.234Z,1015.20
2023-03-20T05:26:47.279Z,1015.17
2023-03-20T05:27:47.244Z,1015.23
2023-03-20T05:28:47.229Z,1015.21
2023-03-20T05:29:47.240Z,1015.23
2023-03-20T05:30:47.245Z,1015.27
2023-03-20T05:31:47.221Z,1015.24
2023-03-20T05:32:47.334Z,1015.28
2023-03-20T05:33:47.218Z,1015.25
2023-03-20T05:34:47.213Z,1015.28
2023-03-20T05:35:47.242Z,1015.27
2023-03-20T05:36:47.219Z,1015.25
2023-03-20T05:37:47.193Z,1015.19
2023-03-20T05:38:47.200Z,1015.21
2023-03-20T05:39:47.190Z,1015.18
2023-03-20T05:40:47.221Z,1015.20
2023-03-20T05:41:47.234Z,1015.23
2023-03-20T05:42:47.201Z,1015.25
2023-03-20T05:43:47.207Z,1015.26
2023-03-20T05:44:47.190Z,1015.30
2023-03-20T05:45:47.219Z,1015.30
2023-03-20T05:46:47.173Z,1015.32
2023-03-20T05:47:47.159Z,1015.35
2023-03-20T05:48:47.167Z,1015.32
2023-03-20T05:49:47.166Z,1015.31
2023-03-20T05:50:47.191Z,1015.30
2023-03-20T05:51:47.151Z,1015.33
2023-03-20T05:52:47.153Z,1015.35
2023-03-20T05:53:47.154Z,1015.37
2023-03-20T05:54:47.147Z,1015.39
2023-03-20T05:55:47.137Z,1015.38
2023-03-20T05:56:47.254Z,1015.39
2023-03-20T05:57:47.135Z,1015.38
2023-03-20T05:58:47.137Z,1015.41
2023-03-20T05:59:47.130Z,1015.41
2023-03-20T06:00:47.140Z,1015.43
2023-03-20T06:01:47.135Z,1015.43
2023-03-20T06:02:47.779Z,1015.40
2023-03-20T06:03:47.202Z,1015.42
2023-03-20T06:04:47.110Z,1015.44
2023-03-20T06:05:47.112Z,1015.40
2023-03-20T06:06:47.121Z,1015.48
2023-03-20T06:07:47.132Z,1015.41
2023-03-20T06:08:47.100Z,1015.44
2023-03-20T06:09:47.105Z,1015.57
2023-03-20T06:10:47.090Z,1015.43
2023-03-20T06:11:47.111Z,1015.46
2023-03-20T06:12:47.102Z,1015.53
2023-03-20T06:13:47.092Z,1015.48
2023-03-20T06:14:47.094Z,1015.53
2023-03-20T06:15:47.129Z,1015.54
2023-03-20T06:16:47.074Z,1015.52
2023-03-20T06:17:47.093Z,1015.52
2023-03-20T06:18:47.071Z,1015.43
2023-03-20T06:19:47.072Z,1015.47
2023-03-20T06:20:47.086Z,1015.49
2023-03-20T06:21:47.065Z,1015.45
2023-03-20T06:22:47.074Z,1015.43
2023-03-20T06:23:47.057Z,1015.41
2023-03-20T06:24:47.064Z,1015.38
2023-03-20T06:25:47.051Z,1015.37
2023-03-20T06:26:47.064Z,1015.38
2023-03-20T06:27:47.065Z,1015.39
2023-03-20T06:28:47.098Z,1015.37
2023-03-20T06:29:47.069Z,1015.39
2023-03-20T06:30:47.114Z,1015.41
2023-03-20T06:31:47.042Z,1015.45
2023-03-20T06:32:47.109Z,1015.44
2023-03-20T06:33:47.055Z,1015.46
2023-03-20T06:34:47.031Z,1015.47
2023-03-20T06:35:47.044Z,1015.50
2023-03-20T06:36:47.038Z,1015.51
2023-03-20T06:37:47.036Z,1015.50
2023-03-20T06:38:47.076Z,1015.42
2023-03-20T06:39:47.008Z,1015.40
2023-03-20T06:40:47.018Z,1015.44
2023-03-20T06:41:47.044Z,1015.42
2023-03-20T06:42:47.014Z,1015.41
2023-03-20T06:43:47.018Z,1015.39
2023-03-20T06:44:47.027Z,1015.40
2023-03-20T06:45:47.009Z,1015.39
2023-03-20T06:46:47.048Z,1015.43
2023-03-20T06:47:47.015Z,1015.37
2023-03-20T06:48:46.995Z,1015.41
2023-03-20T06:49:47.003Z,1015.44
2023-03-20T06:50:46.980Z,1015.44
2023-03-20T06:51:46.990Z,1015.36
2023-03-20T06:52:46.974Z,1015.43
2023-03-20T06:53:46.975Z,1015.44
2023-03-20T06:54:46.968Z,1015.46
2023-03-20T06:55:46.971Z,1015.49
2023-03-20T06:56:46.972Z,1015.51
2023-03-20T06:57:46.967Z,1015.50
2023-03-20T06:58:46.962Z,1015.53
2023-03-20T06:59:46.963Z,1015.56
2023-03-20T07:00:46.986Z,1015.53
2023-03-20T07:01:46.983Z,1015.52
2023-03-20T07:02:46.968Z,1015.52
2023-03-20T07:03:46.950Z,1015.57
2023-03-20T07:04:47.020Z,1015.58
2023-03-20T07:05:46.962Z,1015.63
2023-03-20T07:06:46.961Z,1015.65
2023-03-20T07:07:46.955Z,1015.70
2023-03-20T07:08:46.947Z,1015.71
2023-03-20T07:09:46.947Z,1015.68
2023-03-20T07:10:46.962Z,1015.73
2023-03-20T07:11:46.943Z,1015.73
2023-03-20T07:12:46.924Z,1015.82
2023-03-20T07:13:49.757Z,1015.85
2023-03-20T07:14:46.940Z,1015.87
2023-03-20T07:16:03.111Z,1015.91
2023-03-20T07:16:47.014Z,1015.93
2023-03-20T07:17:46.951Z,1016.00
2023-03-20T07:18:46.924Z,1015.96
2023-03-20T07:19:46.916Z,1015.95
2023-03-20T07:20:46.925Z,1016.01
2023-03-20T07:21:46.930Z,1016.02
2023-03-20T07:22:46.897Z,1016.03
2023-03-20T07:23:46.913Z,1016.05
2023-03-20T07:24:47.426Z,1016.03
2023-03-20T07:25:47.342Z,1016.04
2023-03-20T07:26:46.890Z,1015.92
2023-03-20T07:27:46.896Z,1016.06
2023-03-20T07:28:46.888Z,1016.04
2023-03-20T07:29:46.910Z,1016.05
2023-03-20T07:30:46.892Z,1016.11
2023-03-20T07:31:46.978Z,1016.08
2023-03-20T07:32:46.920Z,1016.07
2023-03-20T07:33:46.895Z,1016.08
2023-03-20T07:34:46.884Z,1016.08
2023-03-20T07:35:46.986Z,1016.08
2023-03-20T07:36:46.877Z,1016.12
2023-03-20T07:37:46.865Z,1016.15
2023-03-20T07:38:46.857Z,1016.18
2023-03-20T07:39:46.869Z,1016.17
2023-03-20T07:40:46.868Z,1016.22
2023-03-20T07:41:46.866Z,1016.23
2023-03-20T07:42:46.865Z,1016.15
2023-03-20T07:43:46.857Z,1016.19
2023-03-20T07:44:46.842Z,1016.17
2023-03-20T07:45:46.906Z,1016.14
2023-03-20T07:46:46.834Z,1016.13
2023-03-20T07:47:46.954Z,1016.15
2023-03-20T07:48:47.023Z,1016.13
2023-03-20T07:49:46.849Z,1016.14
2023-03-20T07:50:46.821Z,1016.16
2023-03-20T07:51:46.840Z,1016.14
2023-03-20T07:52:46.835Z,1016.14
2023-03-20T07:53:46.824Z,1016.17
2023-03-20T07:54:46.824Z,1016.18
2023-03-20T07:55:46.805Z,1016.22
2023-03-20T07:56:46.817Z,1016.20
2023-03-20T07:57:46.804Z,1016.20
2023-03-20T07:58:46.811Z,1016.27
2023-03-20T07:59:46.814Z,1016.28
2023-03-20T08:00:46.808Z,1016.25
2023-03-20T08:01:46.908Z,1016.26
2023-03-20T08:02:46.997Z,1016.28
2023-03-20T08:03:46.893Z,1016.27
2023-03-20T08:04:46.805Z,1016.36
2023-03-20T08:05:47.689Z,1016.33
2023-03-20T08:06:46.785Z,1016.32
2023-03-20T08:07:46.801Z,1016.35
2023-03-20T08:08:46.765Z,1016.36
2023-03-20T08:09:46.786Z,1016.37
2023-03-20T08:10:46.791Z,1016.37
2023-03-20T08:11:46.777Z,1016.40
2023-03-20T08:12:46.782Z,1016.41
2023-03-20T08:13:46.797Z,1016.40
2023-03-20T08:14:46.770Z,1016.36
2023-03-20T08:15:46.788Z,1016.39
2023-03-20T08:16:46.815Z,1016.37
2023-03-20T08:17:46.764Z,1016.38
2023-03-20T08:18:46.754Z,1016.38
2023-03-20T08:19:46.764Z,1016.38
2023-03-20T08:20:46.781Z,1016.35
2023-03-20T08:21:46.736Z,1016.37
2023-03-20T08:22:46.756Z,1016.34
2023-03-20T08:23:46.738Z,1016.39
2023-03-20T08:24:46.728Z,1016.38
2023-03-20T08:25:46.729Z,1016.36
2023-03-20T08:26:46.739Z,1016.36
2023-03-20T08:27:46.738Z,1016.39
2023-03-20T08:28:48.458Z,1016.43
2023-03-20T08:29:46.720Z,1016.43
2023-03-20T08:30:46.758Z,1016.40
2023-03-20T08:31:46.724Z,1016.38
2023-03-20T08:32:46.765Z,1016.37
2023-03-20T08:33:46.727Z,1016.42
2023-03-20T08:34:46.697Z,1016.37
2023-03-20T08:35:47.003Z,1016.38
2023-03-20T08:36:46.762Z,1016.40
2023-03-20T08:37:46.746Z,1016.38
2023-03-20T08:38:46.687Z,1016.35
2023-03-20T08:39:46.706Z,1016.37
2023-03-20T08:40:46.699Z,1016.40
2023-03-20T08:41:46.703Z,1016.39
2023-03-20T08:42:46.695Z,1016.41
2023-03-20T08:43:46.689Z,1016.39
2023-03-20T08:44:46.683Z,1016.42
2023-03-20T08:45:46.738Z,1016.41
2023-03-20T08:46:46.704Z,1016.43
2023-03-20T08:47:46.662Z,1016.44
2023-03-20T08:48:46.667Z,1016.45
2023-03-20T08:49:46.673Z,1016.49
2023-03-20T08:50:46.877Z,1016.47
2023-03-20T08:51:46.664Z,1016.45
2023-03-20T08:52:46.697Z,1016.49
2023-03-20T08:53:46.665Z,1016.48
2023-03-20T08:54:46.659Z,1016.52
2023-03-20T08:55:46.664Z,1016.48
2023-03-20T08:56:46.666Z,1016.55
2023-03-20T08:57:46.652Z,1016.53
2023-03-20T08:58:46.638Z,1016.50
2023-03-20T08:59:46.641Z,1016.46
2023-03-20T09:00:46.627Z,1016.49
2023-03-20T09:01:50.140Z,1016.44
2023-03-20T09:02:46.668Z,1016.47
2023-03-20T09:03:46.612Z,1016.45
2023-03-20T09:04:46.620Z,1016.47
2023-03-20T09:05:46.619Z,1016.46
2023-03-20T09:06:46.623Z,1016.46
2023-03-20T09:07:46.613Z,1016.45
2023-03-20T09:08:46.627Z,1016.46
2023-03-20T09:09:46.612Z,1016.44
2023-03-20T09:10:46.621Z,1016.47
2023-03-20T09:11:46.606Z,1016.43
2023-03-20T09:12:46.605Z,1016.47
2023-03-20T09:13:46.583Z,1016.43
2023-03-20T09:14:46.577Z,1016.45
2023-03-20T09:15:46.648Z,1016.45
2023-03-20T09:16:46.583Z,1016.50
2023-03-20T09:17:46.577Z,1016.49
2023-03-20T09:18:46.570Z,1016.49
2023-03-20T09:19:46.584Z,1016.47
2023-03-20T09:20:46.574Z,1016.43
2023-03-20T09:21:46.562Z,1016.48
2023-03-20T09:22:46.562Z,1016.47
2023-03-20T09:23:46.562Z,1016.44
2023-03-20T09:24:46.610Z,1016.46
2023-03-20T09:25:46.573Z,1016.44
2023-03-20T09:26:46.544Z,1016.47
2023-03-20T09:27:46.561Z,1016.54
2023-03-20T09:28:46.553Z,1016.47
2023-03-20T09:29:46.558Z,1016.49
2023-03-20T09:30:46.595Z,1016.52
2023-03-20T09:31:46.544Z,1016.53
2023-03-20T09:32:46.570Z,1016.52
2023-03-20T09:33:46.543Z,1016.47
2023-03-20T09:34:46.522Z,1016.48
2023-03-20T09:35:46.570Z,1016.55
2023-03-20T09:36:46.513Z,1016.51
2023-03-20T09:37:46.541Z,1016.48
2023-03-20T09:38:46.524Z,1016.44
2023-03-20T09:39:46.531Z,1016.45
2023-03-20T09:40:46.539Z,1016.46
2023-03-20T09:41:56.641Z,1016.50
2023-03-20T09:42:46.527Z,1016.46
2023-03-20T09:43:46.505Z,1016.46
2023-03-20T09:44:46.497Z,1016.43
2023-03-20T09:45:46.561Z,1016.44
2023-03-20T09:46:46.574Z,1016.44
2023-03-20T09:47:46.510Z,1016.44
2023-03-20T09:48:46.501Z,1016.41
2023-03-20T09:49:46.524Z,1016.39
2023-03-20T09:50:46.480Z,1016.44
2023-03-20T09:51:46.502Z,1016.44
2023-03-20T09:52:46.484Z,1016.41
2023-03-20T09:53:46.484Z,1016.41
2023-03-20T09:54:54.057Z,1016.39
2023-03-20T09:55:46.517Z,1016.40
2023-03-20T09:56:46.496Z,1016.40
2023-03-20T09:57:46.453Z,1016.41
2023-03-20T09:58:46.461Z,1016.40
2023-03-20T09:59:46.467Z,1016.41
2023-03-20T10:00:46.462Z,1016.46
2023-03-20T10:01:46.539Z,1016.41
2023-03-20T10:02:46.482Z,1016.49
2023-03-20T10:03:46.433Z,1016.49
2023-03-20T10:04:46.476Z,1016.51
2023-03-20T10:05:46.436Z,1016.49
2023-03-20T10:06:46.558Z,1016.47
2023-03-20T10:07:46.437Z,1016.47
2023-03-20T10:08:46.428Z,1016.46
2023-03-20T10:09:46.421Z,1016.43
2023-03-20T10:10:46.438Z,1016.46
2023-03-20T10:11:46.434Z,1016.44
2023-03-20T10:12:46.444Z,1016.45
2023-03-20T10:13:46.425Z,1016.44
2023-03-20T10:14:46.405Z,1016.41
2023-03-20T10:15:46.413Z,1016.43
2023-03-20T10:16:46.473Z,1016.40
2023-03-20T10:17:46.396Z,1016.44
2023-03-20T10:18:46.404Z,1016.40
2023-03-20T10:19:46.390Z,1016.39
2023-03-20T10:20:47.499Z,1016.40
2023-03-20T10:21:46.413Z,1016.41
2023-03-20T10:22:46.399Z,1016.45
2023-03-20T10:23:46.388Z,1016.42
2023-03-20T10:24:46.389Z,1016.43
2023-03-20T10:25:46.376Z,1016.40
2023-03-20T10:26:46.405Z,1016.48
2023-03-20T10:27:46.387Z,1016.47
2023-03-20T10:28:46.395Z,1016.45
2023-03-20T10:29:46.371Z,1016.42
2023-03-20T10:30:46.359Z,1016.44
2023-03-20T10:31:46.473Z,1016.46
2023-03-20T10:32:46.455Z,1016.51
2023-03-20T10:33:46.387Z,1016.53
2023-03-20T10:34:46.355Z,1016.49
2023-03-20T10:35:46.406Z,1016.48
2023-03-20T10:36:46.403Z,1016.49
2023-03-20T10:37:46.344Z,1016.49
2023-03-20T10:38:46.350Z,1016.51
2023-03-20T10:39:46.332Z,1016.40
2023-03-20T10:40:46.342Z,1016.44
2023-03-20T10:41:46.323Z,1016.52
2023-03-20T10:42:46.341Z,1016.49
2023-03-20T10:43:46.331Z,1016.48
2023-03-20T10:44:46.375Z,1016.46
2023-03-20T10:45:46.327Z,1016.50
2023-03-20T10:46:46.485Z,1016.49
2023-03-20T10:47:46.386Z,1016.45
2023-03-20T10:48:46.325Z,1016.42
2023-03-20T10:49:46.299Z,1016.40
2023-03-20T10:50:46.303Z,1016.39
2023-03-20T10:51:46.309Z,1016.41
2023-03-20T10:52:46.299Z,1016.34
2023-03-20T10:53:46.284Z,1016.34
2023-03-20T10:54:46.297Z,1016.37
2023-03-20T10:55:46.344Z,1016.33
2023-03-20T10:56:46.284Z,1016.31
2023-03-20T10:57:46.289Z,1016.33
2023-03-20T10:58:46.311Z,1016.31
2023-03-20T10:59:46.290Z,1016.32
2023-03-20T11:00:46.320Z,1016.29
2023-03-20T11:01:46.279Z,1016.29
2023-03-20T11:02:46.278Z,1016.26
2023-03-20T11:03:46.255Z,1016.30
2023-03-20T11:04:46.256Z,1016.27
2023-03-20T11:05:55.606Z,1016.30
2023-03-20T11:06:46.257Z,1016.29
2023-03-20T11:07:46.258Z,1016.30
2023-03-20T11:08:46.268Z,1016.33
2023-03-20T11:09:46.252Z,1016.29
2023-03-20T11:10:46.239Z,1016.37
2023-03-20T11:11:46.248Z,1016.32
2023-03-20T11:12:46.241Z,1016.30
2023-03-20T11:13:46.245Z,1016.31
2023-03-20T11:14:46.243Z,1016.32
2023-03-20T11:15:46.247Z,1016.30
2023-03-20T11:16:46.301Z,1016.26
2023-03-20T11:17:46.231Z,1016.29
2023-03-20T11:18:46.240Z,1016.28
2023-03-20T11:19:46.214Z,1016.27
2023-03-20T11:20:46.216Z,1016.24
2023-03-20T11:21:46.230Z,1016.23
2023-03-20T11:22:46.226Z,1016.23
2023-03-20T11:23:46.202Z,1016.24
2023-03-20T11:24:46.202Z,1016.22
2023-03-20T11:25:46.193Z,1016.27
2023-03-20T11:26:46.199Z,1016.22
2023-03-20T11:27:46.200Z,1016.17
2023-03-20T11:28:46.207Z,1016.15
2023-03-20T11:29:46.187Z,1016.18
2023-03-20T11:31:03.588Z,1016.14
2023-03-20T11:31:46.294Z,1016.13
2023-03-20T11:32:46.216Z,1016.16
2023-03-20T11:33:46.219Z,1016.12
2023-03-20T11:34:46.182Z,1016.10
2023-03-20T11:35:46.207Z,1016.10
2023-03-20T11:36:48.949Z,1016.10
2023-03-20T11:37:46.196Z,1016.07
2023-03-20T11:38:46.177Z,1016.08
2023-03-20T11:39:46.145Z,1016.02
2023-03-20T11:40:46.150Z,1016.06
2023-03-20T11:41:46.141Z,1016.01
2023-03-20T11:42:46.143Z,1016.02
2023-03-20T11:43:46.144Z,1016.00
2023-03-20T11:44:46.136Z,1016.02
2023-03-20T11:45:46.150Z,1015.99
2023-03-20T11:46:46.142Z,1015.99
2023-03-20T11:47:46.123Z,1016.02
2023-03-20T11:48:46.143Z,1015.98
2023-03-20T11:49:46.119Z,1015.97
2023-03-20T11:50:46.131Z,1015.99
2023-03-20T11:51:46.107Z,1015.94
2023-03-20T11:52:46.126Z,1015.98
2023-03-20T11:53:48.027Z,1015.89
2023-03-20T11:54:46.105Z,1015.96
2023-03-20T11:55:46.117Z,1015.97
2023-03-20T11:56:46.099Z,1015.93
2023-03-20T11:57:47.465Z,1015.93
2023-03-20T11:58:46.109Z,1015.97
2023-03-20T11:59:46.105Z,1016.00
2023-03-20T12:00:46.101Z,1015.97
2023-03-20T12:01:46.104Z,1015.93
2023-03-20T12:02:46.226Z,1015.96
2023-03-20T12:03:46.119Z,1015.89
2023-03-20T12:04:46.107Z,1015.98
2023-03-20T12:05:46.089Z,1015.88